createdAt,value
2019-04-30T00:04:07.339Z,8.53
2019-04-30T00:10:12.318Z,8.29
2019-04-30T00:16:16.873Z,8.10
2019-04-30T00:22:30.926Z,7.92
2019-04-30T00:35:55.161Z,7.44
2019-04-30T00:41:57.050Z,7.37
2019-04-30T00:48:01.720Z,6.92
2019-04-30T00:54:06.335Z,6.74
2019-04-30T01:00:16.956Z,6.65
2019-04-30T01:06:24.717Z,6.38
2019-04-30T01:12:30.967Z,6.35
2019-04-30T01:18:32.774Z,6.45
2019-04-30T01:24:38.677Z,6.46
2019-04-30T01:30:43.673Z,6.44
2019-04-30T01:36:52.088Z,6.49
2019-04-30T01:42:54.617Z,6.43
2019-04-30T01:48:59.175Z,6.32
2019-04-30T01:55:03.801Z,6.46
2019-04-30T02:01:10.066Z,6.25
2019-04-30T02:07:14.632Z,6.23
2019-04-30T02:13:19.173Z,6.01
2019-04-30T02:19:23.727Z,6.04
2019-04-30T02:25:29.568Z,5.97
2019-04-30T02:31:34.352Z,5.77
2019-04-30T02:37:43.572Z,5.59
2019-04-30T02:43:49.782Z,5.43
2019-04-30T02:50:11.396Z,5.10
2019-04-30T02:56:02.579Z,5.10
2019-04-30T03:02:11.476Z,5.27
2019-04-30T03:08:13.522Z,5.17
2019-04-30T03:14:20.093Z,5.34
2019-04-30T03:20:35.671Z,5.17
2019-04-30T03:26:34.830Z,5.29
2019-04-30T03:32:43.141Z,5.03
2019-04-30T03:38:45.691Z,4.82
2019-04-30T03:44:50.245Z,4.65
2019-04-30T03:50:57.018Z,4.62
2019-04-30T03:57:01.202Z,4.63
2019-04-30T04:03:06.043Z,4.55
2019-04-30T04:09:21.932Z,4.53
2019-04-30T04:15:24.346Z,4.38
2019-04-30T04:21:29.976Z,4.51
2019-04-30T04:27:34.817Z,4.66
2019-04-30T04:33:39.612Z,4.99
2019-04-30T04:39:44.310Z,5.05
2019-04-30T04:45:49.830Z,5.14
2019-04-30T04:51:54.793Z,5.34
2019-04-30T04:57:59.866Z,5.43
2019-04-30T05:04:04.851Z,5.62
2019-04-30T05:10:10.132Z,5.84
2019-04-30T05:16:14.672Z,6.04
2019-04-30T05:22:19.297Z,6.20
2019-04-30T05:28:23.869Z,6.34
2019-04-30T05:34:28.835Z,6.64
2019-04-30T05:40:33.580Z,6.65
2019-04-30T05:46:39.743Z,7.02
2019-04-30T05:52:44.496Z,7.27
2019-04-30T05:58:49.501Z,7.53
2019-04-30T06:04:54.145Z,8.18
2019-04-30T06:11:00.391Z,8.64
2019-04-30T06:17:09.900Z,8.87
2019-04-30T06:23:14.778Z,9.06
2019-04-30T06:29:19.567Z,9.36
2019-04-30T06:35:24.961Z,9.35
2019-04-30T06:41:29.737Z,9.53
2019-04-30T06:47:34.676Z,10.00
2019-04-30T06:53:39.293Z,10.12
2019-04-30T06:59:43.912Z,10.22
2019-04-30T07:05:48.899Z,10.33
2019-04-30T07:11:53.416Z,10.61
2019-04-30T07:17:59.092Z,10.70
2019-04-30T07:24:03.812Z,10.80
2019-04-30T07:30:09.939Z,10.64
2019-04-30T07:36:14.768Z,10.82
2019-04-30T07:42:19.401Z,11.35
2019-04-30T07:48:26.562Z,12.02
2019-04-30T07:54:30.263Z,12.39
2019-04-30T08:00:34.957Z,12.89
2019-04-30T08:06:39.946Z,13.05
2019-04-30T08:12:45.386Z,13.11
2019-04-30T08:18:50.380Z,13.34
2019-04-30T08:24:54.940Z,13.61
2019-04-30T08:30:59.489Z,13.83
2019-04-30T08:37:16.762Z,14.44
2019-04-30T08:43:10.414Z,14.59
2019-04-30T08:49:16.090Z,14.86
2019-04-30T08:55:22.449Z,14.56
2019-04-30T09:01:29.225Z,14.69
2019-04-30T09:07:33.728Z,14.82
2019-04-30T09:13:38.967Z,15.30
2019-04-30T09:19:43.674Z,15.83
2019-04-30T09:25:49.675Z,16.67
2019-04-30T09:31:54.488Z,16.44
2019-04-30T09:38:01.881Z,15.97
2019-04-30T09:44:05.750Z,16.32
2019-04-30T09:50:13.564Z,16.80
2019-04-30T09:56:19.342Z,17.25
2019-04-30T10:02:24.109Z,17.99
2019-04-30T10:08:30.735Z,18.58
2019-04-30T10:14:35.325Z,18.95
2019-04-30T10:20:43.775Z,19.12
2019-04-30T10:26:48.335Z,19.02
2019-04-30T10:32:52.873Z,19.81
2019-04-30T10:38:59.329Z,20.02
2019-04-30T10:45:05.389Z,20.17
2019-04-30T10:51:10.086Z,20.96
2019-04-30T10:57:14.708Z,21.97
2019-04-30T11:03:22.853Z,21.90
2019-04-30T11:09:30.691Z,22.23
2019-04-30T11:15:34.021Z,22.29
2019-04-30T11:21:38.770Z,22.04
2019-04-30T11:27:44.060Z,23.10
2019-04-30T11:33:49.276Z,23.67
2019-04-30T11:39:54.142Z,22.83
2019-04-30T11:46:22.328Z,23.03
2019-04-30T11:52:26.901Z,24.02
2019-04-30T11:58:31.495Z,23.99
2019-04-30T12:04:36.079Z,25.93
2019-04-30T12:10:45.050Z,25.82
2019-04-30T12:16:50.687Z,25.77
2019-04-30T12:22:55.367Z,26.78
2019-04-30T12:28:59.921Z,27.41
2019-04-30T12:35:07.215Z,28.76
2019-04-30T12:41:11.871Z,29.72
2019-04-30T12:47:19.292Z,30.04
2019-04-30T12:53:30.550Z,30.36
2019-04-30T12:59:35.644Z,29.03
2019-04-30T13:05:40.264Z,28.27
2019-04-30T13:11:45.259Z,30.15
2019-04-30T13:17:50.257Z,28.49
2019-04-30T13:23:54.802Z,30.09
2019-04-30T13:30:03.670Z,29.69
2019-04-30T13:36:08.770Z,29.16
2019-04-30T13:42:29.242Z,28.91
2019-04-30T13:48:33.622Z,27.53
2019-04-30T13:54:38.261Z,27.60
2019-04-30T14:00:42.885Z,27.89
2019-04-30T14:06:48.747Z,28.16
2019-04-30T14:12:57.992Z,29.67
2019-04-30T14:19:02.639Z,26.26
2019-04-30T14:25:08.323Z,27.39
2019-04-30T14:31:12.875Z,28.17
2019-04-30T14:37:17.442Z,27.74
2019-04-30T14:43:26.455Z,27.93
2019-04-30T14:49:36.084Z,26.63
2019-04-30T14:55:45.094Z,27.34
2019-04-30T15:01:54.091Z,28.56
2019-04-30T15:08:00.699Z,27.87
2019-04-30T15:14:05.613Z,29.56
2019-04-30T15:20:10.787Z,27.93
2019-04-30T15:26:22.115Z,26.35
2019-04-30T15:32:21.764Z,28.26
2019-04-30T15:38:44.289Z,29.01
2019-04-30T15:44:49.642Z,28.60
2019-04-30T15:50:54.479Z,28.39
2019-04-30T15:57:00.451Z,29.71
2019-04-30T16:03:16.162Z,29.99
2019-04-30T16:09:28.442Z,26.49
2019-04-30T16:15:32.950Z,24.44
2019-04-30T16:21:37.582Z,26.19
2019-04-30T16:27:42.138Z,26.69
2019-04-30T16:33:48.685Z,26.11
2019-04-30T16:39:53.043Z,25.47
2019-04-30T16:45:58.890Z,25.42
2019-04-30T16:52:03.713Z,25.64
2019-04-30T16:58:08.976Z,26.19
2019-04-30T17:04:19.216Z,25.95
2019-04-30T17:10:25.598Z,25.22
2019-04-30T17:16:30.308Z,24.64
2019-04-30T17:22:34.865Z,24.89
2019-04-30T17:28:39.435Z,24.32
2019-04-30T17:34:44.022Z,23.41
2019-04-30T17:40:49.625Z,22.44
2019-04-30T17:46:54.420Z,21.77
2019-04-30T17:53:00.651Z,20.28
2019-04-30T17:59:05.621Z,19.39
2019-04-30T18:05:11.387Z,18.77
2019-04-30T18:11:16.157Z,17.95
2019-04-30T18:17:22.270Z,17.34
2019-04-30T18:23:28.480Z,17.19
2019-04-30T18:29:33.111Z,16.57
2019-04-30T18:35:38.804Z,15.88
2019-04-30T18:41:43.557Z,15.38
2019-04-30T18:47:48.135Z,15.06
2019-04-30T18:53:52.699Z,14.91
2019-04-30T18:59:59.112Z,14.59
2019-04-30T19:06:05.343Z,14.34
2019-04-30T19:12:19.434Z,14.11
2019-04-30T19:18:28.265Z,13.96
2019-04-30T19:24:32.902Z,13.91
2019-04-30T19:30:38.993Z,13.61
2019-04-30T19:36:43.673Z,13.51
2019-04-30T19:42:50.749Z,13.40
2019-04-30T19:48:54.566Z,13.08
2019-04-30T19:54:59.129Z,13.31
2019-04-30T20:01:03.832Z,13.27
2019-04-30T20:07:08.830Z,13.30
2019-04-30T20:13:13.496Z,13.27
2019-04-30T20:19:18.077Z,13.56
2019-04-30T20:25:22.695Z,13.41
2019-04-30T20:31:28.773Z,13.33
2019-04-30T20:37:35.139Z,13.38
2019-04-30T20:43:39.693Z,13.56
2019-04-30T20:49:44.279Z,13.55
2019-04-30T20:55:49.520Z,13.58
2019-04-30T21:01:54.231Z,13.60
2019-04-30T21:07:58.774Z,13.44
2019-04-30T21:14:03.782Z,13.34
2019-04-30T21:20:09.812Z,13.29
2019-04-30T21:26:14.434Z,13.15
2019-04-30T21:32:38.289Z,12.91
2019-04-30T21:38:43.295Z,12.69
2019-04-30T21:44:47.849Z,12.35
2019-04-30T21:50:52.410Z,12.09
2019-04-30T21:56:56.986Z,12.04
2019-04-30T22:03:01.804Z,11.68
2019-04-30T22:09:09.750Z,11.37
2019-04-30T22:15:14.762Z,11.17
2019-04-30T22:21:19.332Z,11.27
2019-04-30T22:27:23.900Z,11.14
2019-04-30T22:33:29.232Z,11.12
2019-04-30T22:39:36.394Z,11.36
2019-04-30T22:45:42.604Z,11.13
2019-04-30T22:51:47.163Z,11.36
2019-04-30T22:57:51.800Z,11.44
2019-04-30T23:04:00.430Z,11.56
2019-04-30T23:10:08.028Z,11.90
2019-04-30T23:16:13.252Z,11.93
2019-04-30T23:22:17.826Z,11.99
2019-04-30T23:28:22.499Z,11.87
2019-04-30T23:34:27.141Z,11.78
2019-04-30T23:40:52.398Z,11.60
2019-04-30T23:46:57.027Z,11.49
2019-04-30T23:53:01.614Z,11.54
2019-04-30T23:59:06.252Z,11.60
